sensor_id;sensor_type;location;lat;lon;timestamp;pressure;altitude;pressure_sealevel;temperature;humidity
5500;BME280;2772;42.700;23.304;2023-04-23T00:00:50;95083.34;;;12.78;100.00
5500;BME280;2772;42.700;23.304;2023-04-23T00:03:20;95085.25;;;12.69;100.00
5500;BME280;2772;42.700;23.304;2023-04-23T00:05:48;95091.09;;;12.62;100.00
5500;BME280;2772;42.700;23.304;2023-04-23T00:08:17;95073.47;;;12.61;100.00
5500;BME280;2772;42.700;23.304;2023-04-23T00:10:45;95079.31;;;12.55;100.00
5500;BME280;2772;42.700;23.304;2023-04-23T00:13:13;95078.22;;;12.56;100.00
5500;BME280;2772;42.700;23.304;2023-04-23T00:15:40;95077.25;;;12.60;100.00
5500;BME280;2772;42.700;23.304;2023-04-23T00:18:07;95078.22;;;12.56;100.00
5500;BME280;2772;42.700;23.304;2023-04-23T00:20:34;95080.44;;;12.45;100.00
5500;BME280;2772;42.700;23.304;2023-04-23T00:23:01;95086.31;;;12.22;100.00
5500;BME280;2772;42.700;23.304;2023-04-23T00:25:28;95085.97;;;12.23;100.00
5500;BME280;2772;42.700;23.304;2023-04-23T00:27:54;95079.38;;;12.21;100.00
5500;BME280;2772;42.700;23.304;2023-04-23T00:30:22;95075.47;;;12.27;100.00
5500;BME280;2772;42.700;23.304;2023-04-23T00:32:49;95075.13;;;12.37;100.00
5500;BME280;2772;42.700;23.304;2023-04-23T00:35:16;95082.34;;;12.36;100.00
5500;BME280;2772;42.700;23.304;2023-04-23T00:37:42;95078.56;;;12.29;100.00
5500;BME280;2772;42.700;23.304;2023-04-23T00:40:10;95068.06;;;12.41;100.00
5500;BME280;2772;42.700;23.304;2023-04-23T00:42:37;95078.25;;;12.39;100.00
5500;BME280;2772;42.700;23.304;2023-04-23T00:45:06;95078.75;;;12.32;100.00
5500;BME280;2772;42.700;23.304;2023-04-23T00:47:35;95084.56;;;12.26;100.00
5500;BME280;2772;42.700;23.304;2023-04-23T00:50:02;95085.84;;;12.11;100.00
5500;BME280;2772;42.700;23.304;2023-04-23T00:52:29;95082.84;;;12.04;100.00
5500;BME280;2772;42.700;23.304;2023-04-23T00:54:56;95087.88;;;12.06;100.00
5500;BME280;2772;42.700;23.304;2023-04-23T00:57:22;95086.47;;;12.00;100.00
5500;BME280;2772;42.700;23.304;2023-04-23T00:59:50;95087.25;;;11.92;100.00
5500;BME280;2772;42.700;23.304;2023-04-23T01:02:17;95094.34;;;11.88;100.00
5500;BME280;2772;42.700;23.304;2023-04-23T01:04:46;95088.19;;;11.79;100.00
5500;BME280;2772;42.700;23.304;2023-04-23T01:07:15;95083.66;;;11.71;100.00
5500;BME280;2772;42.700;23.304;2023-04-23T01:09:42;95084.13;;;11.64;100.00
5500;BME280;2772;42.700;23.304;2023-04-23T01:12:09;95082.53;;;11.63;100.00
5500;BME280;2772;42.700;23.304;2023-04-23T01:14:36;95079.38;;;11.61;100.00
5500;BME280;2772;42.700;23.304;2023-04-23T01:17:03;95084.69;;;11.53;100.00
5500;BME280;2772;42.700;23.304;2023-04-23T01:19:33;95089.25;;;11.44;100.00
5500;BME280;2772;42.700;23.304;2023-04-23T01:22:01;95084.06;;;11.39;100.00
5500;BME280;2772;42.700;23.304;2023-04-23T01:24:30;95085.00;;;11.34;100.00
5500;BME280;2772;42.700;23.304;2023-04-23T01:26:57;95087.97;;;11.33;100.00
5500;BME280;2772;42.700;23.304;2023-04-23T01:29:25;95087.28;;;11.10;100.00
5500;BME280;2772;42.700;23.304;2023-04-23T01:31:52;95094.94;;;11.03;100.00
5500;BME280;2772;42.700;23.304;2023-04-23T01:34:19;95092.97;;;10.78;100.00
5500;BME280;2772;42.700;23.304;2023-04-23T01:36:47;95086.00;;;10.60;100.00
5500;BME280;2772;42.700;23.304;2023-04-23T01:39:15;95079.75;;;10.34;100.00
5500;BME280;2772;42.700;23.304;2023-04-23T01:41:44;95086.44;;;10.53;100.00
5500;BME280;2772;42.700;23.304;2023-04-23T01:44:11;95085.09;;;10.64;100.00
5500;BME280;2772;42.700;23.304;2023-04-23T01:46:38;95093.72;;;10.70;100.00
5500;BME280;2772;42.700;23.304;2023-04-23T01:49:05;95092.16;;;10.69;100.00
5500;BME280;2772;42.700;23.304;2023-04-23T01:51:31;95090.56;;;10.68;100.00
5500;BME280;2772;42.700;23.304;2023-04-23T01:53:58;95085.09;;;10.64;100.00
5500;BME280;2772;42.700;23.304;2023-04-23T01:56:26;95090.28;;;10.69;100.00
5500;BME280;2772;42.700;23.304;2023-04-23T01:58:56;95084.66;;;10.71;100.00
5500;BME280;2772;42.700;23.304;2023-04-23T02:01:22;95085.84;;;10.65;100.00
5500;BME280;2772;42.700;23.304;2023-04-23T02:03:50;95095.31;;;10.71;100.00
5500;BME280;2772;42.700;23.304;2023-04-23T02:06:17;95087.16;;;10.76;100.00
5500;BME280;2772;42.700;23.304;2023-04-23T02:08:44;95094.69;;;10.74;100.00
5500;BME280;2772;42.700;23.304;2023-04-23T02:11:11;95096.25;;;10.75;100.00
5500;BME280;2772;42.700;23.304;2023-04-23T02:13:39;95094.84;;;10.77;100.00
5500;BME280;2772;42.700;23.304;2023-04-23T02:16:08;95092.16;;;10.77;100.00
5500;BME280;2772;42.700;23.304;2023-04-23T02:18:35;95094.06;;;10.77;100.00
5500;BME280;2772;42.700;23.304;2023-04-23T02:21:02;95099.09;;;10.78;100.00
5500;BME280;2772;42.700;23.304;2023-04-23T02:23:29;95099.47;;;10.63;100.00
5500;BME280;2772;42.700;23.304;2023-04-23T02:25:56;95092.47;;;10.67;100.00
5500;BME280;2772;42.700;23.304;2023-04-23T02:28:22;95096.28;;;10.53;100.00
5500;BME280;2772;42.700;23.304;2023-04-23T02:30:49;95095.97;;;10.46;100.00
5500;BME280;2772;42.700;23.304;2023-04-23T02:33:17;95092.63;;;10.40;100.00
5500;BME280;2772;42.700;23.304;2023-04-23T02:35:45;95102.34;;;10.45;100.00
5500;BME280;2772;42.700;23.304;2023-04-23T02:38:12;95103.28;;;10.40;100.00
5500;BME280;2772;42.700;23.304;2023-04-23T02:40:38;95098.31;;;10.47;100.00
5500;BME280;2772;42.700;23.304;2023-04-23T02:43:05;95100.56;;;10.32;100.00
5500;BME280;2772;42.700;23.304;2023-04-23T02:45:31;95097.66;;;10.42;100.00
5500;BME280;2772;42.700;23.304;2023-04-23T02:47:58;95099.22;;;10.43;100.00
5500;BME280;2772;42.700;23.304;2023-04-23T02:50:26;95097.34;;;10.43;100.00
5500;BME280;2772;42.700;23.304;2023-04-23T02:52:53;95090.69;;;10.32;100.00
5500;BME280;2772;42.700;23.304;2023-04-23T02:55:19;95097.16;;;10.40;100.00
5500;BME280;2772;42.700;23.304;2023-04-23T02:57:46;95097.34;;;10.43;100.00
5500;BME280;2772;42.700;23.304;2023-04-23T03:00:13;95092.94;;;10.39;100.00
5500;BME280;2772;42.700;23.304;2023-04-23T03:02:41;95098.44;;;10.42;100.00
5500;BME280;2772;42.700;23.304;2023-04-23T03:05:08;95097.00;;;10.36;100.00
5500;BME280;2772;42.700;23.304;2023-04-23T03:07:36;95106.44;;;10.42;100.00
5500;BME280;2772;42.700;23.304;2023-04-23T03:10:03;95102.06;;;10.46;100.00
5500;BME280;2772;42.700;23.304;2023-04-23T03:12:31;95102.34;;;10.45;100.00
5500;BME280;2772;42.700;23.304;2023-04-23T03:14:57;95097.47;;;10.38;100.00
5500;BME280;2772;42.700;23.304;2023-04-23T03:17:24;95110.97;;;10.20;100.00
5500;BME280;2772;42.700;23.304;2023-04-23T03:19:51;95109.72;;;10.17;100.00
5500;BME280;2772;42.700;23.304;2023-04-23T03:22:17;95116.91;;;10.17;100.00
5500;BME280;2772;42.700;23.304;2023-04-23T03:24:45;95112.41;;;10.04;100.00
5500;BME280;2772;42.700;23.304;2023-04-23T03:27:12;95104.44;;;10.04;100.00
5500;BME280;2772;42.700;23.304;2023-04-23T03:29:39;95110.34;;;10.01;100.00
5500;BME280;2772;42.700;23.304;2023-04-23T03:32:05;95118.41;;;10.09;100.00
5500;BME280;2772;42.700;23.304;2023-04-23T03:34:32;95107.66;;;10.14;100.00
5500;BME280;2772;42.700;23.304;2023-04-23T03:36:59;95118.91;;;10.11;100.00
5500;BME280;2772;42.700;23.304;2023-04-23T03:39:25;95116.91;;;10.17;100.00
5500;BME280;2772;42.700;23.304;2023-04-23T03:41:53;95116.19;;;10.25;100.00
5500;BME280;2772;42.700;23.304;2023-04-23T03:44:20;95117.16;;;10.29;100.00
5500;BME280;2772;42.700;23.304;2023-04-23T03:46:47;95119.81;;;10.29;100.00
5500;BME280;2772;42.700;23.304;2023-04-23T03:49:13;95119.63;;;10.25;100.00
5500;BME280;2772;42.700;23.304;2023-04-23T03:51:41;95121.50;;;10.25;100.00
5500;BME280;2772;42.700;23.304;2023-04-23T03:54:07;95120.69;;;10.24;100.00
5500;BME280;2772;42.700;23.304;2023-04-23T03:56:34;95121.19;;;10.26;100.00
5500;BME280;2772;42.700;23.304;2023-04-23T03:59:02;95123.97;;;10.21;100.00
5500;BME280;2772;42.700;23.304;2023-04-23T04:01:29;95126.16;;;10.19;100.00
5500;BME280;2772;42.700;23.304;2023-04-23T04:03:56;95127.44;;;10.22;100.00
5500;BME280;2772;42.700;23.304;2023-04-23T04:06:23;95131.91;;;10.13;100.00
5500;BME280;2772;42.700;23.304;2023-04-23T04:08:50;95128.56;;;10.07;100.00
5500;BME280;2772;42.700;23.304;2023-04-23T04:11:17;95132.91;;;10.03;100.00
5500;BME280;2772;42.700;23.304;2023-04-23T04:13:43;95132.22;;;10.11;100.00
5500;BME280;2772;42.700;23.304;2023-04-23T04:16:11;95126.78;;;10.16;100.00
5500;BME280;2772;42.700;23.304;2023-04-23T04:18:38;95125.38;;;10.19;100.00
5500;BME280;2772;42.700;23.304;2023-04-23T04:21:05;95137.72;;;10.15;100.00
5500;BME280;2772;42.700;23.304;2023-04-23T04:23:34;95132.94;;;10.25;100.00
5500;BME280;2772;42.700;23.304;2023-04-23T04:26:01;95132.69;;;10.35;100.00
5500;BME280;2772;42.700;23.304;2023-04-23T04:28:27;95147.16;;;10.21;100.00
5500;BME280;2772;42.700;23.304;2023-04-23T04:30:54;95149.03;;;10.20;100.00
5500;BME280;2772;42.700;23.304;2023-04-23T04:33:23;95153.31;;;10.08;100.00
5500;BME280;2772;42.700;23.304;2023-04-23T04:35:50;95144.41;;;10.12;100.00
5500;BME280;2772;42.700;23.304;2023-04-23T04:38:17;95140.50;;;10.32;100.00
5500;BME280;2772;42.700;23.304;2023-04-23T04:40:44;95153.44;;;10.25;100.00
5500;BME280;2772;42.700;23.304;2023-04-23T04:43:11;95152.22;;;10.31;100.00
5500;BME280;2772;42.700;23.304;2023-04-23T04:45:37;95152.94;;;10.45;100.00
5500;BME280;2772;42.700;23.304;2023-04-23T04:48:04;95160.41;;;10.34;100.00
5500;BME280;2772;42.700;23.304;2023-04-23T04:50:32;95161.53;;;10.42;100.00
5500;BME280;2772;42.700;23.304;2023-04-23T04:52:59;95162.94;;;10.61;100.00
5500;BME280;2772;42.700;23.304;2023-04-23T04:55:26;95157.63;;;10.70;100.00
5500;BME280;2772;42.700;23.304;2023-04-23T04:57:52;95166.13;;;10.72;100.00
5500;BME280;2772;42.700;23.304;2023-04-23T05:00:22;95166.31;;;10.75;100.00
5500;BME280;2772;42.700;23.304;2023-04-23T05:02:49;95169.66;;;10.89;100.00
5500;BME280;2772;42.700;23.304;2023-04-23T05:05:17;95168.56;;;10.90;100.00
5500;BME280;2772;42.700;23.304;2023-04-23T05:07:45;95167.81;;;10.98;100.00
5500;BME280;2772;42.700;23.304;2023-04-23T05:10:12;95167.94;;;10.93;100.00
5500;BME280;2772;42.700;23.304;2023-04-23T05:12:40;95175.63;;;10.95;100.00
5500;BME280;2772;42.700;23.304;2023-04-23T05:15:08;95167.41;;;11.13;100.00
5500;BME280;2772;42.700;23.304;2023-04-23T05:17:35;95166.66;;;11.21;100.00
5500;BME280;2772;42.700;23.304;2023-04-23T05:20:02;95179.13;;;11.43;100.00
5500;BME280;2772;42.700;23.304;2023-04-23T05:22:29;95176.13;;;11.45;100.00
5500;BME280;2772;42.700;23.304;2023-04-23T05:24:57;95177.06;;;11.40;100.00
5500;BME280;2772;42.700;23.304;2023-04-23T05:27:24;95183.69;;;11.43;100.00
5500;BME280;2772;42.700;23.304;2023-04-23T05:29:51;95180.84;;;11.48;100.00
5500;BME280;2772;42.700;23.304;2023-04-23T05:32:17;95183.59;;;11.65;100.00
5500;BME280;2772;42.700;23.304;2023-04-23T05:34:44;95181.38;;;11.58;100.00
5500;BME280;2772;42.700;23.304;2023-04-23T05:37:11;95187.72;;;11.71;100.00
5500;BME280;2772;42.700;23.304;2023-04-23T05:39:38;95184.25;;;11.79;100.00
5500;BME280;2772;42.700;23.304;2023-04-23T05:42:06;95178.00;;;11.83;100.00
5500;BME280;2772;42.700;23.304;2023-04-23T05:44:32;95182.69;;;11.69;100.00
5500;BME280;2772;42.700;23.304;2023-04-23T05:46:59;95190.38;;;11.71;100.00
5500;BME280;2772;42.700;23.304;2023-04-23T05:49:26;95191.00;;;11.76;100.00
5500;BME280;2772;42.700;23.304;2023-04-23T05:51:52;95186.75;;;11.67;100.00
5500;BME280;2772;42.700;23.304;2023-04-23T05:54:19;95193.06;;;11.88;100.00
5500;BME280;2772;42.700;23.304;2023-04-23T05:56:46;95194.47;;;11.85;100.00
5500;BME280;2772;42.700;23.304;2023-04-23T05:59:14;95186.66;;;11.97;100.00
5500;BME280;2772;42.700;23.304;2023-04-23T06:01:41;95193.25;;;12.00;100.00
5500;BME280;2772;42.700;23.304;2023-04-23T06:04:07;95194.50;;;12.11;100.00
5500;BME280;2772;42.700;23.304;2023-04-23T06:06:34;95197.03;;;11.99;100.00
5500;BME280;2772;42.700;23.304;2023-04-23T06:09:01;95195.94;;;12.17;100.00
5500;BME280;2772;42.700;23.304;2023-04-23T06:11:28;95195.91;;;12.00;100.00
5500;BME280;2772;42.700;23.304;2023-04-23T06:13:56;95192.63;;;12.20;100.00
5500;BME280;2772;42.700;23.304;2023-04-23T06:16:24;95188.56;;;12.22;100.00
5500;BME280;2772;42.700;23.304;2023-04-23T06:18:51;95191.69;;;12.33;100.00
5500;BME280;2772;42.700;23.304;2023-04-23T06:21:18;95185.88;;;12.31;100.00
5500;BME280;2772;42.700;23.304;2023-04-23T06:23:45;95183.66;;;12.24;100.00
5500;BME280;2772;42.700;23.304;2023-04-23T06:26:12;95189.00;;;12.24;100.00
5500;BME280;2772;42.700;23.304;2023-04-23T06:28:40;95185.56;;;12.15;100.00
5500;BME280;2772;42.700;23.304;2023-04-23T06:31:07;95192.16;;;12.26;100.00
5500;BME280;2772;42.700;23.304;2023-04-23T06:33:35;95187.31;;;12.28;100.00
5500;BME280;2772;42.700;23.304;2023-04-23T06:36:02;95188.69;;;12.43;100.00
5500;BME280;2772;42.700;23.304;2023-04-23T06:38:29;95192.16;;;12.52;100.00
5500;BME280;2772;42.700;23.304;2023-04-23T06:40:56;95186.78;;;12.69;100.00
5500;BME280;2772;42.700;23.304;2023-04-23T06:43:23;95191.31;;;12.86;100.00
5500;BME280;2772;42.700;23.304;2023-04-23T06:45:50;95187.06;;;13.02;100.00
5500;BME280;2772;42.700;23.304;2023-04-23T06:48:16;95176.56;;;13.34;100.00
5500;BME280;2772;42.700;23.304;2023-04-23T06:50:44;95186.59;;;13.75;100.00
5500;BME280;2772;42.700;23.304;2023-04-23T06:53:11;95182.56;;;14.10;100.00
5500;BME280;2772;42.700;23.304;2023-04-23T06:55:38;95188.16;;;14.25;100.00
5500;BME280;2772;42.700;23.304;2023-04-23T06:58:05;95184.56;;;14.21;100.00
5500;BME280;2772;42.700;23.304;2023-04-23T07:00:32;95186.31;;;14.17;100.00
5500;BME280;2772;42.700;23.304;2023-04-23T07:02:59;95187.81;;;13.77;100.00
5500;BME280;2772;42.700;23.304;2023-04-23T07:05:26;95191.34;;;13.98;100.00
5500;BME280;2772;42.700;23.304;2023-04-23T07:07:54;95191.34;;;13.98;100.00
5500;BME280;2772;42.700;23.304;2023-04-23T07:10:20;95196.38;;;14.00;100.00
5500;BME280;2772;42.700;23.304;2023-04-23T07:12:49;95187.72;;;13.94;100.00
5500;BME280;2772;42.700;23.304;2023-04-23T07:15:15;95185.69;;;13.91;100.00
5500;BME280;2772;42.700;23.304;2023-04-23T07:17:42;95187.72;;;13.94;100.00
5500;BME280;2772;42.700;23.304;2023-04-23T07:20:09;95178.19;;;14.05;100.00
5500;BME280;2772;42.700;23.304;2023-04-23T07:22:36;95170.63;;;14.07;100.00
5500;BME280;2772;42.700;23.304;2023-04-23T07:25:05;95173.56;;;14.14;100.00
5500;BME280;2772;42.700;23.304;2023-04-23T07:27:33;95178.66;;;14.07;100.00
5500;BME280;2772;42.700;23.304;2023-04-23T07:29:59;95183.56;;;14.05;100.00
5500;BME280;2772;42.700;23.304;2023-04-23T07:32:27;95173.84;;;14.21;100.00
5500;BME280;2772;42.700;23.304;2023-04-23T07:34:54;95176.72;;;14.37;100.00
5500;BME280;2772;42.700;23.304;2023-04-23T07:37:21;95173.06;;;14.42;100.00
5500;BME280;2772;42.700;23.304;2023-04-23T07:39:48;95172.22;;;14.50;100.00
5500;BME280;2772;42.700;23.304;2023-04-23T07:42:16;95174.22;;;14.73;100.00
5500;BME280;2772;42.700;23.304;2023-04-23T07:44:43;95174.22;;;14.73;100.00
5500;BME280;2772;42.700;23.304;2023-04-23T07:47:10;95177.88;;;14.69;100.00
5500;BME280;2772;42.700;23.304;2023-04-23T07:49:36;95173.69;;;14.80;100.00
5500;BME280;2772;42.700;23.304;2023-04-23T07:52:03;95169.41;;;14.79;100.00
5500;BME280;2772;42.700;23.304;2023-04-23T07:54:30;95168.47;;;14.95;100.00
5500;BME280;2772;42.700;23.304;2023-04-23T07:56:57;95177.56;;;15.15;100.00
5500;BME280;2772;42.700;23.304;2023-04-23T07:59:25;95164.16;;;15.27;100.00
5500;BME280;2772;42.700;23.304;2023-04-23T08:01:51;95174.09;;;15.14;100.00
5500;BME280;2772;42.700;23.304;2023-04-23T08:04:18;95168.16;;;15.09;100.00
5500;BME280;2772;42.700;23.304;2023-04-23T08:06:45;95166.25;;;15.09;100.00
5500;BME280;2772;42.700;23.304;2023-04-23T08:09:12;95166.81;;;15.27;100.00
5500;BME280;2772;42.700;23.304;2023-04-23T08:11:39;95168.88;;;15.30;100.00
5500;BME280;2772;42.700;23.304;2023-04-23T08:14:06;95169.78;;;15.46;100.00
5500;BME280;2772;42.700;23.304;2023-04-23T08:16:34;95170.38;;;15.51;100.00
5500;BME280;2772;42.700;23.304;2023-04-23T08:19:01;95163.84;;;15.64;100.00
5500;BME280;2772;42.700;23.304;2023-04-23T08:21:29;95168.69;;;15.59;100.00
5500;BME280;2772;42.700;23.304;2023-04-23T08:23:57;95163.88;;;15.76;100.00
5500;BME280;2772;42.700;23.304;2023-04-23T08:26:24;95162.75;;;15.77;100.00
5500;BME280;2772;42.700;23.304;2023-04-23T08:28:51;95165.31;;;15.86;100.00
5500;BME280;2772;42.700;23.304;2023-04-23T08:31:17;95165.75;;;15.88;100.00
5500;BME280;2772;42.700;23.304;2023-04-23T08:33:46;95156.59;;;15.89;100.00
5500;BME280;2772;42.700;23.304;2023-04-23T08:36:13;95147.50;;;15.94;100.00
5500;BME280;2772;42.700;23.304;2023-04-23T08:38:39;95147.94;;;15.96;100.00
5500;BME280;2772;42.700;23.304;2023-04-23T08:41:09;95150.84;;;16.03;100.00
5500;BME280;2772;42.700;23.304;2023-04-23T08:43:43;95141.66;;;16.16;100.00
5500;BME280;2772;42.700;23.304;2023-04-23T08:46:11;95155.16;;;16.19;97.22
5500;BME280;2772;42.700;23.304;2023-04-23T08:48:39;95145.75;;;16.25;99.85
5500;BME280;2772;42.700;23.304;2023-04-23T08:51:08;95141.09;;;16.38;97.88
5500;BME280;2772;42.700;23.304;2023-04-23T08:53:36;95134.97;;;16.37;96.43
5500;BME280;2772;42.700;23.304;2023-04-23T08:56:04;95136.00;;;16.21;95.88
5500;BME280;2772;42.700;23.304;2023-04-23T08:58:32;95138.84;;;16.12;97.92
5500;BME280;2772;42.700;23.304;2023-04-23T09:01:00;95129.09;;;16.20;97.80
5500;BME280;2772;42.700;23.304;2023-04-23T09:03:28;95130.97;;;16.31;96.45
5500;BME280;2772;42.700;23.304;2023-04-23T09:05:54;95139.09;;;16.35;97.87
5500;BME280;2772;42.700;23.304;2023-04-23T09:08:23;95134.63;;;16.39;96.57
5500;BME280;2772;42.700;23.304;2023-04-23T09:10:50;95137.75;;;16.53;95.64
5500;BME280;2772;42.700;23.304;2023-04-23T09:13:17;95129.16;;;16.63;92.24
5500;BME280;2772;42.700;23.304;2023-04-23T09:15:44;95126.78;;;16.73;89.87
5500;BME280;2772;42.700;23.304;2023-04-23T09:18:11;95118.88;;;16.80;91.42
5500;BME280;2772;42.700;23.304;2023-04-23T09:20:37;95119.78;;;16.84;88.51
5500;BME280;2772;42.700;23.304;2023-04-23T09:23:06;95117.69;;;16.93;89.29
5500;BME280;2772;42.700;23.304;2023-04-23T09:25:34;95120.72;;;16.92;88.42
5500;BME280;2772;42.700;23.304;2023-04-23T09:28:06;95119.91;;;16.76;89.54
5500;BME280;2772;42.700;23.304;2023-04-23T09:30:38;95118.44;;;16.78;88.44
5500;BME280;2772;42.700;23.304;2023-04-23T09:33:05;95109.75;;;16.69;87.53
5500;BME280;2772;42.700;23.304;2023-04-23T09:35:32;95114.72;;;16.67;87.42
5500;BME280;2772;42.700;23.304;2023-04-23T09:38:00;95106.72;;;16.71;87.03
5500;BME280;2772;42.700;23.304;2023-04-23T09:40:30;95093.97;;;16.83;89.80
5500;BME280;2772;42.700;23.304;2023-04-23T09:42:58;95099.66;;;16.94;86.71
5500;BME280;2772;42.700;23.304;2023-04-23T09:45:29;95097.72;;;17.10;89.44
5500;BME280;2772;42.700;23.304;2023-04-23T09:47:58;95089.16;;;17.20;84.59
5500;BME280;2772;42.700;23.304;2023-04-23T09:50:33;95089.84;;;17.17;83.05
5500;BME280;2772;42.700;23.304;2023-04-23T09:53:00;95085.06;;;17.10;84.38
5500;BME280;2772;42.700;23.304;2023-04-23T09:55:28;95084.38;;;17.13;83.60
5500;BME280;2772;42.700;23.304;2023-04-23T09:57:55;95085.22;;;17.17;79.79
5500;BME280;2772;42.700;23.304;2023-04-23T10:00:24;95097.31;;;17.23;77.83
5500;BME280;2772;42.700;23.304;2023-04-23T10:02:54;95079.06;;;17.32;79.08
5500;BME280;2772;42.700;23.304;2023-04-23T10:05:21;95082.34;;;17.41;76.36
5500;BME280;2772;42.700;23.304;2023-04-23T10:07:48;95089.56;;;17.37;73.52
5500;BME280;2772;42.700;23.304;2023-04-23T10:10:16;95081.16;;;17.55;72.10
5500;BME280;2772;42.700;23.304;2023-04-23T10:12:43;95074.63;;;17.56;72.35
5500;BME280;2772;42.700;23.304;2023-04-23T10:15:11;95076.34;;;17.64;71.05
5500;BME280;2772;42.700;23.304;2023-04-23T10:17:40;95059.06;;;17.65;69.90
5500;BME280;2772;42.700;23.304;2023-04-23T10:20:08;95054.94;;;17.71;74.16
5500;BME280;2772;42.700;23.304;2023-04-23T10:22:37;95056.09;;;17.70;70.72
5500;BME280;2772;42.700;23.304;2023-04-23T10:25:06;95057.00;;;17.77;72.89
5500;BME280;2772;42.700;23.304;2023-04-23T10:27:37;95047.72;;;17.75;70.40
5500;BME280;2772;42.700;23.304;2023-04-23T10:30:05;95042.91;;;17.84;70.87
5500;BME280;2772;42.700;23.304;2023-04-23T10:32:33;95029.88;;;17.86;69.80
5500;BME280;2772;42.700;23.304;2023-04-23T10:35:01;95037.97;;;17.86;68.46
5500;BME280;2772;42.700;23.304;2023-04-23T10:37:28;95037.78;;;17.60;69.17
5500;BME280;2772;42.700;23.304;2023-04-23T10:39:59;95043.25;;;17.63;67.22
5500;BME280;2772;42.700;23.304;2023-04-23T10:42:26;95037.22;;;17.70;67.99
5500;BME280;2772;42.700;23.304;2023-04-23T10:44:55;95034.81;;;17.65;65.92
5500;BME280;2772;42.700;23.304;2023-04-23T10:47:22;95025.19;;;17.64;65.60
5500;BME280;2772;42.700;23.304;2023-04-23T10:49:48;95017.94;;;17.68;64.49
5500;BME280;2772;42.700;23.304;2023-04-23T10:52:17;95017.41;;;17.78;62.95
5500;BME280;2772;42.700;23.304;2023-04-23T10:54:47;95024.06;;;17.84;63.21
5500;BME280;2772;42.700;23.304;2023-04-23T10:57:14;95014.81;;;17.85;62.33
5500;BME280;2772;42.700;23.304;2023-04-23T10:59:51;95010.31;;;17.89;60.01
5500;BME280;2772;42.700;23.304;2023-04-23T11:02:18;95005.75;;;17.93;59.76
5500;BME280;2772;42.700;23.304;2023-04-23T11:04:46;95001.94;;;17.94;59.02
5500;BME280;2772;42.700;23.304;2023-04-23T11:07:18;94997.25;;;18.10;60.57
5500;BME280;2772;42.700;23.304;2023-04-23T11:09:46;94984.66;;;18.17;59.88
5500;BME280;2772;42.700;23.304;2023-04-23T11:12:30;94985.97;;;18.23;56.12
5500;BME280;2772;42.700;23.304;2023-04-23T11:14:58;94985.53;;;18.21;54.48
5500;BME280;2772;42.700;23.304;2023-04-23T11:17:57;94976.72;;;18.24;53.17
5500;BME280;2772;42.700;23.304;2023-04-23T11:20:24;94966.84;;;18.32;51.36
5500;BME280;2772;42.700;23.304;2023-04-23T11:22:52;94968.13;;;18.38;51.63
5500;BME280;2772;42.700;23.304;2023-04-23T11:25:20;94965.50;;;18.41;50.62
5500;BME280;2772;42.700;23.304;2023-04-23T11:27:49;94969.09;;;18.49;50.37
5500;BME280;2772;42.700;23.304;2023-04-23T11:30:21;94975.81;;;18.58;49.66
5500;BME280;2772;42.700;23.304;2023-04-23T11:32:50;94971.97;;;18.59;47.41
5500;BME280;2772;42.700;23.304;2023-04-23T11:35:18;94962.50;;;18.69;47.55
5500;BME280;2772;42.700;23.304;2023-04-23T11:37:45;94961.50;;;18.77;44.66
5500;BME280;2772;42.700;23.304;2023-04-23T11:40:16;94958.84;;;18.80;43.82
5500;BME280;2772;42.700;23.304;2023-04-23T11:42:45;94957.78;;;18.85;43.17
5500;BME280;2772;42.700;23.304;2023-04-23T11:45:16;94953.88;;;18.82;42.79
5500;BME280;2772;42.700;23.304;2023-04-23T11:47:43;94956.63;;;18.86;42.18
5500;BME280;2772;42.700;23.304;2023-04-23T11:50:16;94945.22;;;18.96;41.52
5500;BME280;2772;42.700;23.304;2023-04-23T11:52:42;94940.75;;;19.07;43.43
5500;BME280;2772;42.700;23.304;2023-04-23T11:55:09;94957.75;;;19.08;42.94
5500;BME280;2772;42.700;23.304;2023-04-23T11:57:42;94941.56;;;19.11;43.94
5500;BME280;2772;42.700;23.304;2023-04-23T12:00:14;94929.38;;;19.21;45.50
5500;BME280;2772;42.700;23.304;2023-04-23T12:02:51;94930.22;;;19.25;45.42
5500;BME280;2772;42.700;23.304;2023-04-23T12:05:19;94925.72;;;19.32;44.49
5500;BME280;2772;42.700;23.304;2023-04-23T12:07:48;94924.94;;;19.32;44.02
5500;BME280;2772;42.700;23.304;2023-04-23T12:10:16;94934.69;;;19.40;43.06
5500;BME280;2772;42.700;23.304;2023-04-23T12:12:48;94935.94;;;19.20;42.35
5500;BME280;2772;42.700;23.304;2023-04-23T12:15:14;94925.94;;;19.24;42.12
5500;BME280;2772;42.700;23.304;2023-04-23T12:17:41;94932.22;;;19.28;43.78
5500;BME280;2772;42.700;23.304;2023-04-23T12:20:09;94928.66;;;19.24;44.02
5500;BME280;2772;42.700;23.304;2023-04-23T12:22:37;94928.13;;;19.15;43.36
5500;BME280;2772;42.700;23.304;2023-04-23T12:25:05;94925.72;;;19.06;43.29
5500;BME280;2772;42.700;23.304;2023-04-23T12:27:38;94926.06;;;19.05;44.45
5500;BME280;2772;42.700;23.304;2023-04-23T12:30:08;94932.75;;;18.88;44.53
5500;BME280;2772;42.700;23.304;2023-04-23T12:32:36;94925.88;;;18.90;44.67
5500;BME280;2772;42.700;23.304;2023-04-23T12:35:03;94915.44;;;18.89;44.31
5500;BME280;2772;42.700;23.304;2023-04-23T12:37:35;94915.09;;;18.94;44.17
5500;BME280;2772;42.700;23.304;2023-04-23T12:40:03;94905.16;;;18.98;43.25
5500;BME280;2772;42.700;23.304;2023-04-23T12:42:32;94914.91;;;19.06;42.66
5500;BME280;2772;42.700;23.304;2023-04-23T12:45:04;94910.03;;;19.15;42.05
5500;BME280;2772;42.700;23.304;2023-04-23T12:47:33;94906.31;;;19.27;42.11
5500;BME280;2772;42.700;23.304;2023-04-23T12:50:00;94906.81;;;19.32;42.85
5500;BME280;2772;42.700;23.304;2023-04-23T12:52:28;94904.72;;;19.48;43.27
5500;BME280;2772;42.700;23.304;2023-04-23T12:54:55;94908.66;;;19.54;42.42
5500;BME280;2772;42.700;23.304;2023-04-23T12:57:23;94902.81;;;19.52;41.81
5500;BME280;2772;42.700;23.304;2023-04-23T12:59:51;94907.84;;;19.54;41.85
5500;BME280;2772;42.700;23.304;2023-04-23T13:02:19;94888.63;;;19.59;41.46
5500;BME280;2772;42.700;23.304;2023-04-23T13:04:47;94896.06;;;19.69;41.95
5500;BME280;2772;42.700;23.304;2023-04-23T13:07:13;94906.97;;;19.76;41.29